Main page
METAR-TAF:

METAR-TAF

Airports :

David Wayne Hooks Memorial Airport

Houston / Tomball, Texas, United States

latitude: 30-04-03N, longitude: 095-33-22W, elevation: 151 ft

Current weather observation

The report was made 36 minutes ago, at 22:53 UTC
Wind 15 mph from the South with gusts up to 26 mph
Temperature 79°F
Humidity 58%
Pressure 29.82 in. Hg
Visibility: 10 miles
Scattered clouds at a height of 5000 ft

METAR: KDWH 172253Z 18013G23KT 10SM SCT050 26/17 A2982 RMK AO2 SLP094 T02610167

Time: 17:29 (23:29 UTC)


TAF: missing

Weather observations and forecasts of more than 4000 airports (METAR and TAF reports).

The available stations are represented by yellow and red dots on the map.

Hover mouse over dot to see the name of the station.

Then click to see weather observations and forecasts.

To change the map : click on the green buttons with a black cross to zoom in, on the green button with a dash to zoom out, or on the green arrows for adjacent maps.


METAR-TAF: